sensor_id;sensor_type;location;lat;lon;timestamp;P1;durP1;ratioP1;P2;durP2;ratioP2
37085;SDS011;23001;45.952;12.676;2023-08-20T05:36:50;13.95;;;12.50;;
37085;SDS011;23001;45.952;12.676;2023-08-20T05:39:15;14.38;;;12.07;;
37085;SDS011;23001;45.952;12.676;2023-08-20T05:41:56;13.55;;;11.90;;
37085;SDS011;23001;45.952;12.676;2023-08-20T05:44:27;14.27;;;12.77;;
37085;SDS011;23001;45.952;12.676;2023-08-20T10:35:49;9.73;;;8.93;;
37085;SDS011;23001;45.952;12.676;2023-08-20T10:55:53;9.98;;;8.82;;
37085;SDS011;23001;45.952;12.676;2023-08-20T10:58:45;11.23;;;8.75;;
37085;SDS011;23001;45.952;12.676;2023-08-20T11:04:07;9.35;;;8.60;;
37085;SDS011;23001;45.952;12.676;2023-08-20T11:06:58;8.98;;;8.18;;
37085;SDS011;23001;45.952;12.676;2023-08-20T11:12:52;9.25;;;8.35;;
37085;SDS011;23001;45.952;12.676;2023-08-20T11:18:10;9.05;;;8.20;;
37085;SDS011;23001;45.952;12.676;2023-08-20T11:20:36;8.52;;;7.72;;
37085;SDS011;23001;45.952;12.676;2023-08-20T11:23:03;9.55;;;8.60;;
37085;SDS011;23001;45.952;12.676;2023-08-20T11:25:33;9.48;;;7.55;;
37085;SDS011;23001;45.952;12.676;2023-08-20T11:27:58;9.63;;;7.55;;
37085;SDS011;23001;45.952;12.676;2023-08-20T11:30:29;8.68;;;7.88;;
37085;SDS011;23001;45.952;12.676;2023-08-20T11:33:00;8.02;;;7.15;;
37085;SDS011;23001;45.952;12.676;2023-08-20T11:35:42;7.95;;;7.13;;
37085;SDS011;23001;45.952;12.676;2023-08-20T11:38:24;7.45;;;6.85;;
37085;SDS011;23001;45.952;12.676;2023-08-20T11:41:15;10.13;;;7.20;;
37085;SDS011;23001;45.952;12.676;2023-08-20T11:43:49;7.38;;;6.75;;
37085;SDS011;23001;45.952;12.676;2023-08-20T11:46:25;7.60;;;6.90;;
37085;SDS011;23001;45.952;12.676;2023-08-20T11:49:10;7.88;;;7.07;;
37085;SDS011;23001;45.952;12.676;2023-08-20T11:54:06;7.03;;;6.35;;
37085;SDS011;23001;45.952;12.676;2023-08-20T11:56:33;7.72;;;7.00;;
37085;SDS011;23001;45.952;12.676;2023-08-20T11:59:13;7.43;;;6.82;;
37085;SDS011;23001;45.952;12.676;2023-08-20T12:01:43;7.55;;;6.95;;
37085;SDS011;23001;45.952;12.676;2023-08-20T12:04:49;7.63;;;6.88;;
37085;SDS011;23001;45.952;12.676;2023-08-20T12:07:16;7.75;;;7.00;;
37085;SDS011;23001;45.952;12.676;2023-08-20T12:09:47;7.63;;;6.88;;
37085;SDS011;23001;45.952;12.676;2023-08-20T12:12:13;10.48;;;7.18;;
37085;SDS011;23001;45.952;12.676;2023-08-20T12:14:39;8.30;;;7.53;;
37085;SDS011;23001;45.952;12.676;2023-08-20T12:17:07;7.50;;;6.80;;
37085;SDS011;23001;45.952;12.676;2023-08-20T12:19:33;8.05;;;7.25;;
37085;SDS011;23001;45.952;12.676;2023-08-20T12:22:07;8.88;;;7.20;;
37085;SDS011;23001;45.952;12.676;2023-08-20T12:24:37;7.78;;;7.18;;
37085;SDS011;23001;45.952;12.676;2023-08-20T12:27:11;7.75;;;6.95;;
37085;SDS011;23001;45.952;12.676;2023-08-20T12:29:40;8.43;;;7.55;;
37085;SDS011;23001;45.952;12.676;2023-08-20T12:32:08;8.00;;;7.35;;
37085;SDS011;23001;45.952;12.676;2023-08-20T12:34:34;7.80;;;7.03;;
37085;SDS011;23001;45.952;12.676;2023-08-20T12:37:16;8.48;;;7.78;;
37085;SDS011;23001;45.952;12.676;2023-08-20T12:39:42;9.18;;;7.57;;
37085;SDS011;23001;45.952;12.676;2023-08-20T12:45:08;9.45;;;7.47;;
37085;SDS011;23001;45.952;12.676;2023-08-20T12:48:02;8.52;;;7.47;;
37085;SDS011;23001;45.952;12.676;2023-08-20T12:51:06;8.18;;;7.40;;
37085;SDS011;23001;45.952;12.676;2023-08-20T12:54:25;8.13;;;7.32;;
37085;SDS011;23001;45.952;12.676;2023-08-20T12:57:03;8.40;;;7.68;;
37085;SDS011;23001;45.952;12.676;2023-08-20T12:59:32;9.23;;;8.32;;
37085;SDS011;23001;45.952;12.676;2023-08-20T13:05:27;9.13;;;7.88;;
37085;SDS011;23001;45.952;12.676;2023-08-20T13:07:56;7.70;;;7.10;;
37085;SDS011;23001;45.952;12.676;2023-08-20T13:19:23;8.18;;;7.43;;
37085;SDS011;23001;45.952;12.676;2023-08-20T13:31:54;7.95;;;7.13;;
37085;SDS011;23001;45.952;12.676;2023-08-20T13:34:19;8.13;;;7.32;;
37085;SDS011;23001;45.952;12.676;2023-08-20T13:36:45;9.05;;;7.20;;
37085;SDS011;23001;45.952;12.676;2023-08-20T13:39:11;6.82;;;6.22;;
37085;SDS011;23001;45.952;12.676;2023-08-20T13:41:48;8.07;;;7.28;;
37085;SDS011;23001;45.952;12.676;2023-08-20T13:44:14;7.30;;;6.70;;
37085;SDS011;23001;45.952;12.676;2023-08-20T13:46:43;7.15;;;6.50;;
37085;SDS011;23001;45.952;12.676;2023-08-20T13:49:12;7.90;;;6.80;;
37085;SDS011;23001;45.952;12.676;2023-08-20T13:51:47;7.50;;;6.78;;
37085;SDS011;23001;45.952;12.676;2023-08-20T13:54:16;10.48;;;6.93;;
37085;SDS011;23001;45.952;12.676;2023-08-20T13:56:44;7.75;;;6.15;;
37085;SDS011;23001;45.952;12.676;2023-08-20T14:04:58;6.50;;;6.00;;
37085;SDS011;23001;45.952;12.676;2023-08-20T14:07:24;6.75;;;6.15;;
37085;SDS011;23001;45.952;12.676;2023-08-20T14:09:50;7.00;;;6.40;;
37085;SDS011;23001;45.952;12.676;2023-08-20T14:12:34;7.70;;;7.00;;
37085;SDS011;23001;45.952;12.676;2023-08-20T14:15:00;7.20;;;6.60;;
37085;SDS011;23001;45.952;12.676;2023-08-20T14:17:28;7.78;;;6.88;;
37085;SDS011;23001;45.952;12.676;2023-08-20T14:19:55;7.40;;;6.70;;
37085;SDS011;23001;45.952;12.676;2023-08-20T14:22:21;8.00;;;6.85;;
37085;SDS011;23001;45.952;12.676;2023-08-20T14:24:47;7.45;;;6.85;;
37085;SDS011;23001;45.952;12.676;2023-08-20T14:27:13;7.85;;;6.45;;
37085;SDS011;23001;45.952;12.676;2023-08-20T14:33:20;8.20;;;7.40;;
37085;SDS011;23001;45.952;12.676;2023-08-20T14:35:49;7.10;;;6.47;;
37085;SDS011;23001;45.952;12.676;2023-08-20T14:38:15;7.68;;;6.95;;
37085;SDS011;23001;45.952;12.676;2023-08-20T14:40:40;6.75;;;6.25;;
37085;SDS011;23001;45.952;12.676;2023-08-20T14:43:13;7.00;;;6.40;;
37085;SDS011;23001;45.952;12.676;2023-08-20T14:45:42;10.25;;;6.63;;
37085;SDS011;23001;45.952;12.676;2023-08-20T14:48:10;7.10;;;6.38;;
37085;SDS011;23001;45.952;12.676;2023-08-20T15:00:48;7.75;;;6.50;;
37085;SDS011;23001;45.952;12.676;2023-08-20T15:03:17;6.45;;;5.95;;
37085;SDS011;23001;45.952;12.676;2023-08-20T15:05:43;7.38;;;6.55;;
37085;SDS011;23001;45.952;12.676;2023-08-20T15:08:13;7.32;;;6.78;;
37085;SDS011;23001;45.952;12.676;2023-08-20T15:10:42;6.95;;;6.20;;
37085;SDS011;23001;45.952;12.676;2023-08-20T15:16:53;6.75;;;6.05;;
37085;SDS011;23001;45.952;12.676;2023-08-20T15:19:25;7.10;;;6.38;;
37085;SDS011;23001;45.952;12.676;2023-08-20T15:21:53;7.20;;;6.50;;
37085;SDS011;23001;45.952;12.676;2023-08-20T15:31:26;6.80;;;6.25;;
37085;SDS011;23001;45.952;12.676;2023-08-20T15:56:43;7.22;;;6.53;;
37085;SDS011;23001;45.952;12.676;2023-08-20T15:59:12;7.00;;;6.40;;
37085;SDS011;23001;45.952;12.676;2023-08-20T16:35:57;7.45;;;6.82;;
37085;SDS011;23001;45.952;12.676;2023-08-20T16:38:41;8.02;;;6.68;;
37085;SDS011;23001;45.952;12.676;2023-08-20T16:41:10;7.45;;;6.70;;
37085;SDS011;23001;45.952;12.676;2023-08-20T17:06:43;7.22;;;6.53;;
37085;SDS011;23001;45.952;12.676;2023-08-20T17:09:15;6.90;;;6.40;;
37085;SDS011;23001;45.952;12.676;2023-08-20T17:11:45;7.65;;;6.95;;
37085;SDS011;23001;45.952;12.676;2023-08-20T17:18:01;7.05;;;6.35;;
37085;SDS011;23001;45.952;12.676;2023-08-20T17:20:32;7.35;;;6.65;;
37085;SDS011;23001;45.952;12.676;2023-08-20T17:23:17;7.65;;;7.03;;
37085;SDS011;23001;45.952;12.676;2023-08-20T19:05:38;9.38;;;8.35;;
37085;SDS011;23001;45.952;12.676;2023-08-20T19:08:49;9.32;;;7.72;;
37085;SDS011;23001;45.952;12.676;2023-08-20T19:15:13;9.23;;;8.32;;
37085;SDS011;23001;45.952;12.676;2023-08-20T19:17:38;9.15;;;8.23;;
37085;SDS011;23001;45.952;12.676;2023-08-20T19:37:54;9.63;;;8.73;;
37085;SDS011;23001;45.952;12.676;2023-08-20T19:44:35;9.93;;;9.13;;
37085;SDS011;23001;45.952;12.676;2023-08-20T19:47:35;10.70;;;9.70;;
37085;SDS011;23001;45.952;12.676;2023-08-20T19:50:08;10.52;;;9.52;;
37085;SDS011;23001;45.952;12.676;2023-08-20T19:59:32;13.35;;;9.63;;
37085;SDS011;23001;45.952;12.676;2023-08-20T20:24:05;10.90;;;9.90;;
37085;SDS011;23001;45.952;12.676;2023-08-20T20:37:34;10.45;;;9.48;;
37085;SDS011;23001;45.952;12.676;2023-08-20T20:43:59;11.18;;;10.07;;
37085;SDS011;23001;45.952;12.676;2023-08-20T20:47:25;11.35;;;10.25;;
37085;SDS011;23001;45.952;12.676;2023-08-20T20:50:22;12.20;;;10.70;;
37085;SDS011;23001;45.952;12.676;2023-08-20T20:56:14;11.45;;;10.45;;
37085;SDS011;23001;45.952;12.676;2023-08-20T20:59:58;11.20;;;10.05;;
37085;SDS011;23001;45.952;12.676;2023-08-20T21:24:00;11.40;;;10.23;;
37085;SDS011;23001;45.952;12.676;2023-08-20T21:33:46;10.35;;;9.35;;
37085;SDS011;23001;45.952;12.676;2023-08-20T21:36:19;12.15;;;10.05;;
